createdAt,value
2019-02-17T00:02:20.326Z,1.10
2019-02-17T00:04:47.168Z,1.00
2019-02-17T00:07:14.057Z,1.00
2019-02-17T00:09:40.908Z,0.90
2019-02-17T00:12:07.697Z,0.90
2019-02-17T00:14:34.850Z,0.90
2019-02-17T00:17:01.998Z,0.80
2019-02-17T00:19:28.842Z,0.80
2019-02-17T00:21:55.993Z,0.70
2019-02-17T00:24:22.835Z,0.70
2019-02-17T00:26:49.678Z,0.70
2019-02-17T00:29:16.829Z,0.70
2019-02-17T00:31:43.672Z,0.70
2019-02-17T00:34:10.517Z,0.70
2019-02-17T00:36:37.666Z,0.70
2019-02-17T00:39:05.124Z,0.70
2019-02-17T00:41:32.284Z,0.70
2019-02-17T00:43:59.426Z,0.60
2019-02-17T00:46:26.270Z,0.80
2019-02-17T00:48:53.111Z,0.80
2019-02-17T00:51:20.262Z,0.80
2019-02-17T00:53:47.110Z,0.80
2019-02-17T00:56:14.258Z,0.70
2019-02-17T00:58:41.155Z,0.70
2019-02-17T01:01:08.203Z,0.60
2019-02-17T01:03:35.097Z,0.50
2019-02-17T01:06:01.941Z,0.50
2019-02-17T01:08:28.832Z,0.60
2019-02-17T01:10:55.705Z,0.40
2019-02-17T01:13:22.517Z,0.40
2019-02-17T01:15:49.362Z,0.40
2019-02-17T01:18:16.463Z,0.50
2019-02-17T01:20:43.309Z,0.60
2019-02-17T01:23:10.457Z,0.50
2019-02-17T01:25:37.300Z,0.40
2019-02-17T01:28:04.148Z,0.30
2019-02-17T01:30:31.032Z,0.30
2019-02-17T01:45:21.581Z,0.30
2019-02-17T01:47:48.416Z,0.00
2019-02-17T01:50:15.569Z,-0.10
2019-02-17T01:52:42.719Z,-0.10
2019-02-17T01:55:09.561Z,0.10
2019-02-17T01:57:36.406Z,-0.10
2019-02-17T02:00:08.772Z,-0.10
2019-02-17T02:02:35.619Z,-0.20
2019-02-17T02:05:02.460Z,-0.20
2019-02-17T02:07:29.634Z,-0.20
2019-02-17T02:09:57.045Z,-0.30
2019-02-17T02:12:23.912Z,-0.20
2019-02-17T02:14:51.063Z,-0.10
2019-02-17T02:17:18.212Z,-0.10
2019-02-17T02:19:45.054Z,-0.10
2019-02-17T02:22:12.212Z,0.00
2019-02-17T02:24:39.049Z,0.00
2019-02-17T02:27:05.893Z,0.10
2019-02-17T02:29:40.736Z,0.00
2019-02-17T02:32:01.429Z,0.00
2019-02-17T02:34:28.266Z,0.00
2019-02-17T02:36:55.415Z,-0.10
2019-02-17T02:39:22.265Z,-0.10
2019-02-17T02:41:49.157Z,-0.20
2019-02-17T02:44:15.998Z,-0.30
2019-02-17T02:46:42.788Z,-0.30
2019-02-17T02:49:09.938Z,-0.30
2019-02-17T02:51:36.781Z,-0.30
2019-02-17T06:34:53.012Z,-0.20
2019-02-17T06:37:20.162Z,-1.00
2019-02-17T06:39:47.005Z,-1.10
2019-02-17T06:42:13.846Z,-1.20
2019-02-17T06:44:40.999Z,-1.10
2019-02-17T06:47:09.683Z,-1.10
2019-02-17T06:49:37.143Z,-1.00
2019-02-17T06:52:03.986Z,-0.90
2019-02-17T06:54:31.135Z,-0.70
2019-02-17T06:57:00.130Z,-0.70
2019-02-17T06:59:27.279Z,-0.70
2019-02-17T07:01:55.352Z,-0.60
2019-02-17T07:04:24.666Z,-0.50
2019-02-17T07:06:57.971Z,-0.50
2019-02-17T07:09:24.790Z,-0.50
2019-02-17T07:11:53.783Z,-0.50
2019-02-17T07:14:22.470Z,-0.50
2019-02-17T07:16:49.316Z,-0.50
2019-02-17T07:19:18.001Z,-0.50
2019-02-17T07:21:46.687Z,-0.50
2019-02-17T07:24:13.530Z,-0.50
2019-02-17T07:26:40.681Z,-0.50
2019-02-17T07:29:07.524Z,-0.50
2019-02-17T07:31:35.274Z,-0.50
2019-02-17T07:34:02.439Z,-0.50
2019-02-17T07:36:29.283Z,-0.60
2019-02-17T07:38:56.126Z,-0.50
2019-02-17T07:41:23.276Z,-0.50
2019-02-17T07:43:50.119Z,-0.40
2019-02-17T07:46:16.963Z,-0.40
2019-02-17T07:48:44.187Z,-0.40
2019-02-17T07:51:11.309Z,-0.30
2019-02-17T07:53:38.157Z,-0.20
2019-02-17T07:56:05.258Z,-0.20
2019-02-17T07:58:32.103Z,-0.10
2019-02-17T08:00:59.252Z,-0.20
2019-02-17T08:03:26.402Z,-0.20
2019-02-17T08:05:53.246Z,-0.20
2019-02-17T08:08:20.398Z,-0.10
2019-02-17T08:10:47.239Z,0.10
2019-02-17T08:13:14.087Z,0.20
2019-02-17T08:15:41.234Z,0.40
2019-02-17T08:18:08.386Z,0.60
2019-02-17T08:20:37.016Z,0.70
2019-02-17T08:23:03.890Z,0.90
2019-02-17T08:25:30.757Z,1.20
2019-02-17T08:27:57.910Z,1.40
2019-02-17T08:30:24.751Z,1.60
2019-02-17T08:32:51.902Z,1.80
2019-02-17T08:35:18.797Z,2.00
2019-02-17T08:37:45.600Z,2.30
2019-02-17T08:40:12.484Z,2.50
2019-02-17T08:42:39.356Z,2.80
2019-02-17T08:45:07.961Z,3.10
2019-02-17T08:47:34.853Z,3.30
2019-02-17T08:50:01.956Z,3.50
2019-02-17T08:52:28.805Z,3.70
2019-02-17T08:54:56.870Z,3.90
2019-02-17T11:19:51.348Z,4.00
2019-02-17T11:22:23.122Z,8.80
2019-02-17T11:24:46.887Z,8.50
2019-02-17T11:27:14.028Z,8.20
2019-02-17T11:29:40.944Z,8.40
2019-02-17T11:32:08.024Z,8.60
2019-02-17T11:34:36.140Z,8.50
2019-02-17T11:37:03.870Z,8.40
2019-02-17T11:39:31.069Z,8.30
2019-02-17T11:41:58.128Z,8.60
2019-02-17T11:44:26.212Z,8.60
2019-02-17T11:46:53.590Z,8.90
2019-02-17T11:49:21.336Z,9.20
2019-02-17T11:51:48.878Z,9.10
2019-02-17T11:54:16.376Z,9.30
2019-02-17T11:56:43.333Z,9.40
2019-02-17T11:59:10.370Z,8.90
2019-02-17T12:01:37.209Z,8.70
2019-02-17T12:04:04.055Z,8.90
2019-02-17T12:06:31.100Z,8.90
2019-02-17T12:08:58.047Z,8.80
2019-02-17T12:11:24.892Z,8.90
2019-02-17T12:13:51.781Z,8.70
2019-02-17T12:16:18.721Z,8.60
2019-02-17T12:18:46.040Z,8.60
2019-02-17T12:21:16.286Z,8.60
2019-02-17T12:23:44.942Z,8.90
2019-02-17T12:26:13.627Z,8.90
2019-02-17T12:28:45.221Z,9.00
2019-02-17T12:31:14.073Z,9.30
2019-02-17T12:33:41.223Z,9.50
2019-02-17T12:36:08.990Z,9.80
2019-02-17T12:38:37.066Z,9.90
2019-02-17T12:41:04.574Z,10.10
2019-02-17T12:43:31.670Z,10.30
2019-02-17T12:45:58.458Z,10.50
2019-02-17T12:48:25.356Z,10.70
2019-02-17T12:50:52.251Z,10.70
2019-02-17T12:53:19.089Z,10.70
2019-02-17T12:55:45.886Z,10.70
2019-02-17T13:12:58.091Z,10.90
2019-02-17T13:27:42.531Z,11.70
2019-02-17T13:30:21.354Z,12.60
2019-02-17T13:32:49.984Z,12.50
2019-02-17T14:22:11.484Z,12.80
2019-02-17T14:27:13.465Z,16.70
2019-02-17T14:44:25.673Z,19.30
2019-02-17T14:46:56.158Z,23.50
2019-02-17T14:49:26.133Z,23.40
2019-02-17T14:51:55.980Z,23.10
2019-02-17T14:56:50.024Z,24.40
2019-02-17T14:59:16.868Z,23.50
2019-02-17T15:01:43.759Z,23.00
2019-02-17T15:04:10.554Z,23.10
2019-02-17T15:06:37.398Z,23.00
2019-02-17T15:09:06.361Z,22.60
2019-02-17T15:11:33.235Z,22.10
2019-02-17T15:14:00.078Z,22.30
2019-02-17T15:16:26.969Z,22.80
2019-02-17T15:18:53.765Z,22.80
2019-02-17T15:21:21.224Z,22.10
2019-02-17T15:23:48.343Z,21.20
2019-02-17T15:26:15.216Z,21.10
2019-02-17T15:28:50.852Z,21.10
2019-02-17T15:31:15.713Z,21.90
2019-02-17T15:33:42.817Z,21.50
2019-02-17T15:36:11.498Z,21.80
2019-02-17T15:38:40.492Z,21.80
2019-02-17T15:41:07.645Z,20.80
2019-02-17T15:43:39.709Z,21.10
2019-02-17T15:46:06.859Z,21.60
2019-02-17T15:48:36.469Z,21.30
2019-02-17T15:51:06.505Z,20.20
2019-02-17T15:53:31.999Z,19.30
2019-02-17T15:55:58.841Z,18.80
2019-02-17T15:58:28.761Z,18.20
2019-02-17T16:00:55.600Z,17.50
2019-02-17T16:03:25.253Z,16.60
2019-02-17T16:05:52.372Z,15.80
2019-02-17T16:08:20.776Z,15.50
2019-02-17T16:10:47.888Z,15.40
2019-02-17T16:15:44.034Z,14.50
2019-02-17T16:18:10.930Z,13.30
2019-02-17T16:20:42.327Z,12.90
2019-02-17T16:23:09.479Z,12.50
2019-02-17T16:32:58.081Z,12.20
2019-02-17T16:35:24.974Z,11.40
2019-02-17T16:37:51.778Z,11.20
2019-02-17T16:40:19.866Z,10.70
2019-02-17T16:42:49.447Z,10.60
2019-02-17T16:45:16.602Z,10.60
2019-02-17T16:47:45.292Z,10.50
2019-02-17T16:50:18.887Z,10.30
2019-02-17T16:52:46.039Z,10.10
2019-02-17T16:55:12.881Z,9.40
2019-02-17T17:05:09.671Z,9.30
2019-02-17T17:07:36.621Z,8.80
2019-02-17T17:10:04.307Z,8.60
2019-02-17T17:12:31.229Z,8.70
2019-02-17T17:14:58.381Z,8.40
2019-02-17T17:17:25.224Z,8.00
2019-02-17T17:19:52.066Z,8.20
2019-02-17T17:24:48.009Z,7.90
2019-02-17T17:27:15.058Z,7.40
2019-02-17T17:29:42.205Z,7.30
2019-02-17T17:34:36.200Z,7.20
2019-02-17T17:37:04.888Z,7.00
2019-02-17T17:39:31.728Z,7.00
2019-02-17T17:42:00.416Z,7.00
2019-02-17T17:44:38.626Z,7.00
2019-02-17T17:49:32.926Z,6.80
2019-02-17T17:54:28.763Z,6.60
2019-02-17T17:56:55.609Z,6.50
2019-02-17T17:59:23.065Z,6.40
2019-02-17T18:01:49.908Z,6.20
2019-02-17T18:04:16.756Z,6.00
2019-02-17T18:06:43.904Z,6.00
2019-02-17T18:09:11.976Z,6.00
2019-02-17T18:11:39.231Z,6.00
2019-02-17T18:14:06.278Z,6.10
2019-02-17T18:16:36.807Z,5.90
2019-02-17T19:17:58.334Z,5.80
2019-02-17T19:20:27.502Z,4.20
2019-02-17T19:22:54.479Z,4.10
2019-02-17T19:25:21.322Z,4.10
2019-02-17T19:27:48.473Z,4.10
2019-02-17T19:30:15.316Z,4.10
2019-02-17T19:32:42.160Z,4.00
2019-02-17T19:35:11.470Z,4.20
2019-02-17T19:37:38.322Z,4.00
2019-02-17T19:49:55.593Z,3.90
2019-02-17T19:52:22.447Z,3.60
2019-02-17T19:54:49.585Z,3.70
2019-02-17T19:57:16.429Z,3.60
2019-02-17T19:59:43.274Z,3.60
2019-02-17T20:02:10.423Z,3.60
2019-02-17T20:04:39.112Z,3.60
2019-02-17T20:07:05.954Z,3.50
2019-02-17T20:09:32.797Z,3.60
2019-02-17T20:11:59.947Z,3.60
2019-02-17T20:14:27.099Z,3.50
2019-02-17T20:16:54.251Z,3.50
2019-02-17T20:19:21.400Z,3.50
2019-02-17T20:21:48.243Z,3.40
2019-02-17T21:05:59.106Z,3.30
2019-02-17T21:13:20.572Z,2.50
2019-02-17T21:15:48.320Z,2.70
2019-02-17T21:18:15.212Z,2.60
2019-02-17T21:20:42.312Z,2.60
2019-02-17T21:23:09.470Z,2.60
2019-02-17T21:25:36.626Z,2.70
2019-02-17T21:28:03.467Z,2.70
2019-02-17T21:30:30.612Z,2.70
2019-02-17T21:32:57.760Z,2.60
2019-02-17T21:35:24.615Z,2.60
2019-02-17T21:37:52.800Z,2.60
2019-02-17T21:40:19.824Z,2.60
2019-02-17T21:42:46.671Z,2.50
2019-02-17T21:45:14.700Z,2.50
2019-02-17T21:47:41.641Z,2.40
2019-02-17T21:50:11.500Z,2.30
2019-02-17T21:52:38.452Z,2.20
2019-02-17T21:55:07.542Z,2.10
2019-02-17T21:57:34.486Z,2.20
2019-02-17T22:00:01.636Z,2.20
2019-02-17T22:02:28.480Z,2.10
2019-02-17T22:04:55.369Z,2.00
2019-02-17T22:07:22.217Z,2.00
2019-02-17T22:09:49.323Z,2.10
2019-02-17T22:12:16.506Z,2.00
2019-02-17T22:14:43.619Z,1.90
2019-02-17T22:17:10.480Z,1.90
2019-02-17T22:19:39.327Z,1.90
2019-02-17T22:22:05.996Z,2.00
2019-02-17T22:24:33.146Z,2.00
2019-02-17T22:27:00.295Z,2.00
2019-02-17T22:29:27.185Z,2.00
2019-02-17T22:31:54.287Z,2.00
2019-02-17T22:34:21.441Z,2.00
2019-02-17T22:36:48.282Z,1.90
2019-02-17T22:39:15.124Z,1.90
2019-02-17T22:41:42.277Z,1.60
2019-02-17T22:44:09.119Z,1.60
2019-02-17T22:46:36.268Z,1.70
2019-02-17T22:49:02.854Z,1.60
2019-02-17T22:51:29.389Z,1.60
2019-02-17T22:53:56.186Z,1.50
2019-02-17T22:56:23.027Z,1.50
